Latest Weather Observations for Cape Grim

IDT60801

Issued at 12:02 pm EDT Sunday 18 February 2018 (issued every 30 minutes, with the page automatically refreshed every 10 minutes)

About weather observations | Map of weather stations | Latest weather observations for TAS | Other Formats
Station Details ID: 091331 Name: CAPE GRIM Lat: -40.68 Lon: 144.69 Height: 86.0 m
Data from the previous 72 hours. | See also: Recent months at Cape Grim
Date/Time
EDT
Temp
°C
App
Temp
°C
Dew
Point
°C
Rel
Hum
%
Delta-T
°C
Wind Press
QNH
hPa
Press
MSL
hPa
Rain since
9am
mm
Dir  Spd
km/h
Gust
km/h
Spd
kts
Gust
kts
18/12:00pm 16.9 14.5 13.8 82 1.8 SW 19 24 10 13 1014.3 1014.2 0.0
18/11:38am 16.9 15.3 14.0 83 1.7 SSW 15 19 8 10 1013.3 1013.2 0.0
18/11:30am 16.7 15.1 13.8 83 1.6 SSW 15 20 8 11 1013.0 1012.9 0.0
18/11:00am 16.0 13.6 13.8 87 1.2 SW 19 24 10 13 1013.6 1013.5 0.0
18/10:51am 16.3 13.9 14.3 88 1.1 SW 20 24 11 13 1013.6 1013.5 0.0
18/10:30am 16.6 15.5 14.2 86 1.4 SW 13 24 7 13 1013.5 1013.4 0.0
18/10:17am 16.4 14.9 14.1 86 1.3 SW 15 19 8 10 1013.1 1013.0 0.0
18/10:00am 16.6 15.2 14.6 88 1.2 SW 15 20 8 11 1013.3 1013.2 0.0
18/09:30am 16.4 15.0 14.4 88 1.1 SW 15 19 8 10 1013.1 1013.0 0.0
18/09:09am 16.3 14.8 14.3 88 1.1 SW 15 17 8 9 1013.1 1013.0 0.0
18/09:00am 16.3 14.9 14.5 89 1.0 SW 15 19 8 10 1013.0 1012.9 0.2
18/08:36am 16.1 15.5 14.6 91 0.9 SW 11 15 6 8 1012.4 1012.3 0.2
18/08:30am 16.4 15.9 15.8 96 0.4 SW 13 17 7 9 1012.2 1012.1 0.2
18/08:00am 15.8 15.0 15.0 95 0.5 SW 13 17 7 9 1012.2 1012.1 0.2
18/07:30am 15.5 14.4 15.3 99 0.1 SW 15 20 8 11 1012.1 1012.0 0.2
18/07:00am 15.4 14.3 15.4 100 0.0 SW 15 20 8 11 1012.0 1011.9 0.2
18/06:30am 15.4 14.3 15.4 100 0.0 SW 15 20 8 11 1011.4 1011.2 0.2
18/06:00am 15.4 13.4 15.4 100 0.0 SW 20 24 11 13 1011.4 1011.2 0.2
18/05:30am 15.3 13.4 15.3 100 0.0 SW 19 26 10 14 1011.0 1010.8 0.2
18/05:04am 15.7 13.0 15.7 100 0.0 SW 24 37 13 20 1010.8 1010.6 0.2
18/05:00am 15.6 12.9 15.6 100 0.0 SW 24 37 13 20 1010.8 1010.6 0.2
18/04:30am 15.7 14.0 15.7 100 0.0 SW 19 22 10 12 1011.1 1010.9 0.2
18/04:19am 15.5 13.5 15.5 100 0.0 SW 20 26 11 14 1011.1 1010.9 0.2
18/04:18am 15.5 13.5 15.5 100 0.0 SW 20 26 11 14 1011.1 1010.9 0.2
18/04:00am 15.5 13.7 15.5 100 0.0 SW 19 22 10 12 1011.1 1010.9 0.2
18/03:30am 15.5 13.5 15.5 100 0.0 SW 20 30 11 16 1011.0 1010.8 0.2
18/03:00am 15.6 14.2 15.6 100 0.0 WSW 17 28 9 15 1011.3 1011.1 0.2
18/02:43am 15.8 14.9 15.8 100 0.0 WSW 15 28 8 15 1011.1 1010.9 0.2
18/02:41am 15.8 14.9 15.8 100 0.0 WSW 15 28 8 15 1011.1 1010.9 0.2
18/02:30am 15.7 14.4 15.7 100 0.0 W 17 24 9 13 1011.3 1011.1 0.2
18/02:00am 15.7 14.0 15.7 100 0.0 W 19 32 10 17 1011.3 1011.1 0.0
18/01:30am 16.2 14.5 16.2 100 0.0 W 20 28 11 15 1011.5 1011.3 0.0
18/01:00am 15.7 13.3 15.5 99 0.1 W 22 35 12 19 1011.5 1011.3 0.0
18/12:37am 16.3 14.0 15.8 97 0.3 W 22 33 12 18 1011.6 1011.4 0.0
18/12:30am 16.0 12.5 15.4 96 0.3 W 28 37 15 20 1011.6 1011.4 0.0
18/12:00am 16.4 12.4 15.3 93 0.6 W 30 41 16 22 1011.6 1011.4 0.0
 
Date/Time
EDT
Temp
°C
App
Temp
°C
Dew
Point
°C
Rel
Hum
%
Delta-T
°C
Wind Press
QNH
hPa
Press
MSL
hPa
Rain since
9am
mm
Dir  Spd
km/h
Gust
km/h
Spd
kts
Gust
kts
17/11:30pm 16.7 12.1 14.5 87 1.3 W 32 41 17 22 1011.6 1011.4 0.0
17/11:08pm 16.7 12.0 14.9 89 1.0 W 33 44 18 24 1011.6 1011.4 0.0
17/11:00pm 16.7 12.7 15.2 91 0.9 W 30 39 16 21 1011.6 1011.4 0.0
17/10:36pm 16.7 13.1 14.3 86 1.4 W 26 35 14 19 1011.5 1011.3 0.0
17/10:30pm 16.8 12.5 14.3 85 1.4 W 30 41 16 22 1011.7 1011.5 0.0
17/10:00pm 16.6 12.2 14.2 86 1.4 W 30 46 16 25 1011.5 1011.3 0.0
17/09:30pm 16.7 13.6 14.5 87 1.3 W 24 33 13 18 1011.1 1010.9 0.0
17/09:17pm 16.5 13.3 14.3 87 1.3 W 24 35 13 19 1010.9 1010.7 0.0
17/09:05pm 16.2 11.7 13.9 86 1.3 W 30 48 16 26 1010.8 1010.6 0.0
17/09:00pm 16.5 12.5 14.0 85 1.4 W 28 48 15 26 1010.8 1010.6 0.0
17/08:57pm 16.8 12.9 14.3 85 1.4 W 28 48 15 26 1010.8 1010.6 0.0
17/08:30pm 17.0 12.3 14.3 84 1.5 W 32 39 17 21 1010.6 1010.4 0.0
17/08:00pm 16.8 11.8 13.9 83 1.7 W 33 43 18 23 1010.2 1010.0 0.0
17/07:30pm 17.1 12.1 14.0 82 1.8 W 33 43 18 23 1009.9 1009.7 0.0
17/07:00pm 17.7 13.0 14.2 80 2.0 W 32 41 17 22 1009.9 1009.7 0.0
17/06:30pm 18.2 12.9 14.3 78 2.3 W 35 44 19 24 1009.8 1009.6 0.0
17/06:00pm 18.2 13.2 13.9 76 2.5 W 33 44 18 24 1009.7 1009.5 0.0
17/05:30pm 17.6 11.3 13.5 77 2.3 W 39 50 21 27 1009.9 1009.7 0.0
17/05:00pm 19.0 12.8 13.8 72 3.0 W 39 50 21 27 1010.1 1009.9 0.0
17/04:30pm 17.9 10.8 13.4 75 2.6 W 43 54 23 29 1010.0 1009.8 0.0
17/04:00pm 19.3 12.7 13.7 70 3.2 WNW 41 54 22 29 1010.1 1009.9 0.0
17/03:30pm 19.1 12.9 13.7 71 3.1 WNW 39 50 21 27 1010.2 1010.0 0.0
17/03:00pm 18.7 11.8 12.9 69 3.3 WNW 41 54 22 29 1010.6 1010.4 0.0
17/02:30pm 18.3 11.5 13.0 71 3.0 WNW 41 54 22 29 1010.7 1010.5 0.0
17/02:00pm 18.5 11.9 12.7 69 3.3 WNW 39 50 21 27 1010.6 1010.4 0.0
17/01:30pm 18.3 11.9 12.1 67 3.4 WNW 37 50 20 27 1010.5 1010.3 0.0
17/01:00pm 17.6 11.2 12.1 70 3.0 WNW 37 48 20 26 1010.5 1010.3 0.0
17/12:30pm 17.0 11.1 12.3 74 2.6 WNW 35 44 19 24 1010.9 1010.7 0.0
17/12:04pm 16.4 9.6 11.8 74 2.5 WNW 39 57 21 31 1011.0 1010.8 0.0
17/12:00pm 17.0 10.8 11.3 69 3.1 WNW 35 46 19 25 1011.0 1010.8 0.0
17/11:30am 17.5 12.0 12.4 72 2.8 WNW 33 43 18 23 1011.2 1011.0 0.0
17/11:00am 16.4 9.9 10.5 68 3.1 WNW 35 44 19 24 1011.1 1010.9 0.0
17/10:30am 16.9 12.5 11.8 72 2.8 WNW 26 35 14 19 1011.0 1010.8 0.0
17/10:00am 15.7 10.8 11.3 75 2.4 WNW 28 35 15 19 1011.0 1010.8 0.0
17/09:30am 15.9 9.9 10.7 71 2.8 WNW 33 41 18 22 1011.0 1010.8 0.0
17/09:00am 16.2 10.1 9.8 66 3.4 WNW 32 44 17 24 1011.1 1010.9 0.0
17/08:30am 16.0 9.5 10.5 70 2.9 WNW 35 44 19 24 1011.2 1011.0 0.0
17/08:19am 15.1 9.8 11.1 77 2.1 WNW 30 50 16 27 1011.2 1011.0 0.0
17/08:00am 14.6 9.0 11.4 81 1.7 WNW 32 41 17 22 1011.3 1011.1 0.0
17/07:30am 15.7 9.5 10.0 69 3.0 WNW 33 44 18 24 1011.0 1010.8 0.0
17/07:00am 15.8 10.0 9.5 66 3.3 WNW 30 39 16 21 1010.7 1010.5 0.0
17/06:30am 15.7 9.3 8.7 63 3.6 WNW 32 44 17 24 1010.6 1010.4 0.0
17/06:00am 15.7 8.8 8.7 63 3.6 W 35 44 19 24 1010.1 1009.9 0.0
17/05:30am 15.7 8.3 8.4 62 3.7 W 37 46 20 25 1009.9 1009.7 0.0
17/05:00am 15.6 9.2 8.6 63 3.6 WNW 32 41 17 22 1010.0 1009.8 0.0
17/04:30am 15.4 8.3 8.2 62 3.6 WNW 35 44 19 24 1010.3 1010.1 0.0
17/04:00am 15.0 8.6 8.7 66 3.2 WNW 32 43 17 23 1010.4 1010.2 0.0
17/03:30am 15.2 10.2 9.6 69 2.9 W 26 37 14 20 1010.7 1010.5 0.0
17/03:00am 15.4 10.6 8.9 65 3.3 W 24 33 13 18 1010.9 1010.7 0.0
17/02:30am 15.3 9.8 9.0 66 3.2 W 28 44 15 24 1011.2 1011.0 0.0
17/02:00am 15.4 9.9 9.1 66 3.2 W 28 37 15 20 1011.5 1011.3 0.0
17/01:30am 15.0 9.0 8.5 65 3.3 W 30 41 16 22 1011.7 1011.5 0.0
17/01:00am 15.0 9.1 7.5 61 3.7 W 28 35 15 19 1012.1 1012.0 0.0
17/12:30am 15.1 9.6 7.4 60 3.8 W 26 43 14 23 1012.1 1012.0 0.0
17/12:00am 15.1 9.2 9.2 68 3.0 W 30 41 16 22 1012.2 1012.1 0.0
 
Date/Time
EDT
Temp
°C
App
Temp
°C
Dew
Point
°C
Rel
Hum
%
Delta-T
°C
Wind Press
QNH
hPa
Press
MSL
hPa
Rain since
9am
mm
Dir  Spd
km/h
Gust
km/h
Spd
kts
Gust
kts
16/11:30pm 15.1 9.6 9.2 68 3.0 W 28 39 15 21 1012.3 1012.2 0.0
16/11:00pm 15.1 10.7 8.8 66 3.2 W 22 32 12 17 1012.5 1012.4 0.0
16/10:30pm 15.2 10.4 8.9 66 3.2 W 24 35 13 19 1012.6 1012.5 0.0
16/10:00pm 15.1 9.8 8.3 64 3.4 W 26 44 14 24 1012.8 1012.7 0.0
16/09:30pm 15.2 9.4 8.0 62 3.6 W 28 44 15 24 1012.5 1012.4 0.0
16/09:00pm 15.2 10.9 9.3 68 3.0 WSW 22 44 12 24 1012.0 1011.9 0.0
16/08:30pm 15.1 10.5 9.7 70 2.8 W 24 35 13 19 1011.8 1011.6 0.0
16/08:00pm 15.2 10.1 9.3 68 3.0 W 26 41 14 22 1011.8 1011.6 0.0
16/07:30pm 15.2 9.7 9.3 68 3.0 W 28 48 15 26 1011.6 1011.4 0.0
16/07:07pm 15.3 9.8 9.2 67 3.1 W 28 46 15 25 1011.5 1011.3 0.0
16/07:00pm 15.3 9.0 8.8 65 3.3 W 32 48 17 26 1011.5 1011.3 0.0
16/06:31pm 15.5 9.1 8.7 64 3.5 W 32 52 17 28 1011.3 1011.1 0.0
16/06:30pm 15.5 9.1 8.5 63 3.6 W 32 46 17 25 1011.3 1011.1 0.0
16/06:00pm 15.7 9.6 8.2 61 3.8 W 30 54 16 29 1011.4 1011.2 0.0
16/05:39pm 15.9 10.3 8.6 62 3.7 W 28 46 15 25 1011.3 1011.1 0.0
16/05:30pm 16.1 9.6 8.3 60 4.0 W 32 46 17 25 1011.3 1011.1 0.0
16/05:04pm 16.0 10.2 8.0 59 4.0 W 28 46 15 25 1011.4 1011.2 0.0
16/05:00pm 15.9 10.5 8.2 60 3.9 W 26 46 14 25 1011.4 1011.2 0.0
16/04:30pm 15.3 9.8 9.2 67 3.1 WSW 28 44 15 24 1011.5 1011.3 0.0
16/04:00pm 16.1 11.1 9.5 65 3.4 WSW 26 50 14 27 1011.5 1011.3 0.0
16/03:34pm 15.3 9.2 9.9 70 2.8 W 32 50 17 27 1011.6 1011.4 0.0
16/03:30pm 15.3 9.1 9.4 68 3.1 W 32 48 17 26 1011.6 1011.4 0.0
16/03:00pm 15.2 8.7 9.1 67 3.1 W 33 52 18 28 1011.8 1011.6 0.0
16/02:30pm 16.3 10.4 7.3 55 4.5 WSW 28 54 15 29 1011.9 1011.7 0.0
16/02:00pm 16.3 10.2 8.3 59 4.1 WSW 30 56 16 30 1011.8 1011.6 0.0
16/01:32pm 15.8 8.6 7.6 58 4.1 WSW 35 54 19 29 1011.5 1011.3 0.0
16/01:30pm 16.0 8.7 7.2 56 4.4 W 35 52 19 28 1011.5 1011.3 0.0
16/01:01pm 15.5 9.1 8.7 64 3.5 W 32 50 17 27 1011.4 1011.2 0.0
16/01:00pm 15.6 9.0 8.6 63 3.6 W 33 50 18 27 1011.4 1011.2 0.0
16/12:30pm 15.4 9.3 8.2 62 3.6 W 30 52 16 28 1011.4 1011.2 0.0
16/12:00pm 15.6 8.9 7.4 58 4.1 WSW 32 56 17 30 1011.1 1010.9 0.0
16/11:30am 15.2 8.8 8.7 65 3.3 WSW 32 57 17 31 1011.0 1010.8 0.0
16/11:00am 14.6 7.7 9.0 69 2.9 WSW 35 59 19 32 1010.9 1010.7 0.0
16/10:30am 14.9 8.5 9.5 70 2.8 WSW 33 57 18 31 1010.8 1010.6 0.0
16/10:00am 15.0 8.7 9.6 70 2.8 SW 33 57 18 31 1010.7 1010.5 0.0
16/09:30am 14.9 6.7 8.2 64 3.4 WSW 41 63 22 34 1010.4 1010.2 0.0
16/09:00am 14.5 6.8 8.5 67 3.0 W 39 57 21 31 1010.3 1010.1 1.6
16/08:30am 14.7 7.0 8.6 67 3.1 W 39 67 21 36 1009.8 1009.6 1.6
16/08:00am 13.8 7.3 8.0 68 2.9 WSW 32 56 17 30 1009.8 1009.6 1.6
16/07:30am 13.6 5.2 8.9 73 2.4 WSW 43 67 23 36 1009.4 1009.2 1.6
16/07:23am 14.6 7.4 7.6 63 3.5 W 35 54 19 29 1009.1 1008.9 1.6
16/07:00am 14.5 7.0 7.8 64 3.3 W 37 54 20 29 1008.9 1008.7 1.6
16/06:30am 14.3 6.0 7.6 64 3.3 W 41 61 22 33 1008.7 1008.5 1.6
16/06:00am 14.6 7.2 6.9 60 3.8 W 35 56 19 30 1008.3 1008.1 1.6
16/05:30am 14.0 6.7 7.1 63 3.4 W 35 61 19 33 1007.9 1007.7 1.6
16/05:00am 13.6 7.1 8.0 69 2.8 WSW 32 56 17 30 1007.9 1007.7 1.6
16/04:31am 14.2 7.5 7.5 64 3.3 W 32 54 17 29 1007.9 1007.7 1.6
16/04:30am 14.2 7.9 7.5 64 3.3 W 30 46 16 25 1007.9 1007.7 1.6
16/04:01am 14.1 8.0 6.5 60 3.7 WSW 28 48 15 26 1007.9 1007.7 1.6
16/04:00am 14.2 8.5 6.8 61 3.6 WSW 26 48 14 26 1007.9 1007.7 1.6
16/03:31am 14.3 8.0 7.4 63 3.4 W 30 52 16 28 1007.9 1007.7 1.6
16/03:30am 14.2 7.9 7.5 64 3.3 WSW 30 44 16 24 1007.9 1007.7 1.6
16/03:04am 14.0 8.1 7.3 64 3.3 WSW 28 46 15 25 1008.1 1007.9 1.6
16/03:00am 14.0 8.4 7.3 64 3.3 WSW 26 48 14 26 1008.0 1007.8 1.6
16/02:30am 14.2 8.5 8.2 67 3.0 WSW 28 50 15 27 1008.2 1008.0 1.6
16/02:00am 14.2 7.4 7.5 64 3.3 WSW 33 56 18 30 1008.3 1008.1 1.6
16/01:30am 14.2 7.8 7.0 62 3.5 WSW 30 57 16 31 1008.4 1008.2 1.6
16/01:00am 14.1 7.1 6.2 59 3.8 W 32 56 17 30 1008.4 1008.2 1.6
16/12:30am 14.0 6.7 7.3 64 3.3 WSW 35 61 19 33 1008.5 1008.3 1.6
16/12:00am 14.5 7.3 7.5 63 3.5 W 35 56 19 30 1008.3 1008.1 1.6
 
Date/Time
EDT
Temp
°C
App
Temp
°C
Dew
Point
°C
Rel
Hum
%
Delta-T
°C
Wind Press
QNH
hPa
Press
MSL
hPa
Rain since
9am
mm
Dir  Spd
km/h
Gust
km/h
Spd
kts
Gust
kts
15/11:30pm 14.5 7.2 7.1 61 3.6 WSW 35 56 19 30 1008.3 1008.1 1.6
15/11:00pm 14.4 7.4 7.0 61 3.6 WSW 33 56 18 30 1008.6 1008.4 1.6
15/10:30pm 14.5 7.6 8.7 68 2.9 WSW 35 61 19 33 1008.5 1008.3 1.6
15/10:00pm 14.2 6.7 9.6 74 2.4 SW 39 65 21 35 1008.6 1008.4 1.4
15/09:34pm 14.9 8.7 10.1 73 2.5 SW 33 72 18 39 1008.4 1008.2 1.4
15/09:30pm 15.0 8.7 9.8 71 2.7 SW 33 54 18 29 1008.3 1008.1 1.4
15/09:00pm 15.2 8.9 8.9 66 3.2 WSW 32 57 17 31 1008.0 1007.8 1.4
15/08:30pm 15.6 8.9 9.7 68 3.1 WSW 35 59 19 32 1007.7 1007.5 1.4
15/08:00pm 15.3 7.3 10.5 73 2.5 SW 43 63 23 34 1007.5 1007.3 1.4
15/07:30pm 15.7 9.2 10.2 70 2.9 WSW 35 65 19 35 1007.2 1007.0 1.4
15/07:00pm 15.3 9.2 11.7 79 2.0 WSW 35 65 19 35 1007.1 1006.9 1.4
15/06:30pm 15.3 8.7 11.3 77 2.2 SW 37 63 20 34 1006.9 1006.7 1.4
15/06:21pm 15.3 8.9 11.9 80 1.8 WSW 37 59 20 32 1006.9 1006.7 1.4
15/06:00pm 15.7 9.1 12.6 82 1.7 W 39 59 21 32 1006.6 1006.4 1.4
15/05:30pm 15.9 9.1 11.9 77 2.2 W 39 57 21 31 1006.7 1006.5 1.0
15/05:00pm 16.5 8.5 11.2 71 2.9 W 44 63 24 34 1006.6 1006.4 1.0
15/04:59pm 16.6 8.9 11.5 72 2.8 W 43 63 23 34 1006.7 1006.5 1.0
15/04:30pm 17.0 9.4 11.7 71 2.9 W 43 54 23 29 1006.7 1006.5 1.0
15/04:05pm 16.5 9.7 11.9 74 2.5 W 39 57 21 31 1006.9 1006.7 0.8
15/04:00pm 16.7 9.7 12.5 76 2.3 W 41 57 22 31 1007.0 1006.8 0.8
15/03:30pm 16.2 9.0 13.1 82 1.7 W 43 61 23 33 1007.2 1007.0 0.8
15/03:09pm 15.6 7.8 12.9 84 1.5 W 46 69 25 37 1007.2 1007.0 0.8
15/03:00pm 15.4 8.0 13.2 87 1.2 W 44 59 24 32 1007.3 1007.1 0.8
15/02:47pm 14.9 7.9 13.6 92 0.7 W 43 61 23 33 1007.4 1007.2 0.8
15/02:30pm 14.9 7.8 13.9 94 0.6 W 44 59 24 32 1007.5 1007.3 0.8
15/02:22pm 14.7 6.8 12.6 87 1.2 W 46 65 25 35 1007.5 1007.3 0.8
15/02:00pm 15.6 7.6 12.4 81 1.8 W 46 61 25 33 1007.5 1007.3 0.6
15/01:30pm 16.0 9.0 12.6 80 1.9 W 41 59 22 32 1007.5 1007.3 0.6
15/01:01pm 15.7 8.8 12.8 83 1.6 W 41 59 22 32 1007.6 1007.4 0.4
15/01:00pm 15.6 8.2 12.5 82 1.7 W 43 59 23 32 1007.6 1007.4 0.4
15/12:31pm 15.5 8.9 12.6 83 1.6 W 39 59 21 32 1007.7 1007.5 0.4
15/12:30pm 15.7 9.2 13.0 84 1.5 W 39 56 21 30 1007.7 1007.5 0.4
15/12:11pm 15.5 9.4 13.0 85 1.4 W 37 59 20 32 1007.8 1007.6 0.4

Other Formats:

Comma delimited format used in spreadsheet applications
http://www.bom.gov.au/fwo/IDT60801/IDT60801.95954.axf

JavaScript Object Notation format (JSON) in row-major order
http://www.bom.gov.au/fwo/IDT60801/IDT60801.95954.json